Bunch, OK (74931)

1:58 PM CDT on July 25, 2016 (GMT -0500)
Tenkiller Harbor | | Change Station

Elev 751 ft 35.65 °N, 95.04 °W | Updated 1 second ago

Clear
Clear
85.9 °F
Feels Like 93 °F
N
3.5
Wind Variable Wind from NW
Gusts 3.5 mph

Today
High -- | Low -- °F
--% Chance of Precip.
Yesterday
High -- | Low -- °F
Precip. -- in
Pressure 29.99 in
Visibility 10.0 miles
Clouds Clear
Heat Index 93 °F
Dew Point 73 °F
Humidity 66%
Rainfall 0.00 in
Snow Depth Not available.
6:21 AM 8:28 PM
Waning Gibbous, 63% visible
METAR KJSV 251855Z AUTO 07007KT 10SM CLR 33/22 A2999 RMK AO2
Pressure 29.99 in
Visibility 10.0 miles
Clouds Clear
Heat Index 93 °F
Dew Point 73 °F
Humidity 66%
Rainfall 0.00 in
Snow Depth Not available.
6:21 AM 8:28 PM
Waning Gibbous, 63% visible
METAR KJSV 251855Z AUTO 07007KT 10SM CLR 33/22 A2999 RMK AO2

10-Day Weather Forecast

Almanac

Astronomy

Jul. 25, 2016 Rise Set
Actual Time
Civil Twilight
Nautical Twilight
Astronomical Twilight
Moon
Length of Visible Light
Length of Day
Tomorrow will be .
, % of the Moon is Illuminated

Today's Extremes

State Highs State Lows

Community

WunderPhotos

Upload Photos

1,927,370 photos uploaded!

WunderBlog® & News

Nearby

Air Quality

  Air Quality AQ Index Pollutant
Not available.

Snow Depth

Station Depth Elevation

Earthquake Activity

City Distance Mag. Time & Date
Minimum magnitude displayed is 2.5.

Coastal Water Temperatures

Place Temperature

Stations

Nearby Weather Stations

Station Location Temp. Windchill Dew Point Humidity Wind Precip. Elev Updated Type
                   

Watches & Warnings

There are currently no watches in effect.